Nashville, Tennessee
Traffic Map
Current Weather Conditions
Nashville, Tennessee
Broken Clouds
Broken Clouds
77°
Feels Like: 79°
Wind Chill: 77° Ceiling: 1500
Heat Index: 79° Visibility: 10mi
Dew Point: 71° Wind: 8mph
Humidity: 82% Direction: 290° (WNW)
Pressure: 29.99in Gusts: 0mph
Raw Report DataKBNA 181253Z 29007KT 10SM BKN015 BKN200 BKN250 25/22 A2999 RMK AO2 SLP147 T02500217
Traffic Incident Summary
Active as of:
Severity:
Category:
InformationThere was an issue retrieving the traffic information for this location. Please try a different location or try again shortly.
Advertisements